sensor_id;sensor_type;location;lat;lon;timestamp;pressure;altitude;pressure_sealevel;temperature;humidity
74573;BME280;63071;51.526;-0.134;2023-03-14T00:01:12;98255.97;;;23.83;33.50
74573;BME280;63071;51.526;-0.134;2023-03-14T00:03:39;98262.03;;;23.84;33.35
74573;BME280;63071;51.526;-0.134;2023-03-14T00:06:05;98259.38;;;23.84;33.35
74573;BME280;63071;51.526;-0.134;2023-03-14T00:08:31;98259.78;;;23.82;33.14
74573;BME280;63071;51.526;-0.134;2023-03-14T00:10:56;98259.06;;;23.82;33.41
74573;BME280;63071;51.526;-0.134;2023-03-14T00:13:23;98259.47;;;23.80;33.42
74573;BME280;63071;51.526;-0.134;2023-03-14T00:15:49;98265.13;;;23.82;33.38
74573;BME280;63071;51.526;-0.134;2023-03-14T00:18:14;98263.66;;;23.81;33.46
74573;BME280;63071;51.526;-0.134;2023-03-14T00:20:40;98260.97;;;23.81;33.42
74573;BME280;63071;51.526;-0.134;2023-03-14T00:23:06;98250.75;;;23.79;33.18
74573;BME280;63071;51.526;-0.134;2023-03-14T00:25:31;98264.06;;;23.79;33.43
74573;BME280;63071;51.526;-0.134;2023-03-14T00:27:57;98260.66;;;23.79;33.36
74573;BME280;63071;51.526;-0.134;2023-03-14T00:30:22;98263.03;;;23.77;33.33
74573;BME280;63071;51.526;-0.134;2023-03-14T00:32:48;98269.84;;;23.78;33.20
74573;BME280;63071;51.526;-0.134;2023-03-14T00:35:14;98271.34;;;23.79;33.38
74573;BME280;63071;51.526;-0.134;2023-03-14T00:37:40;98267.16;;;23.78;33.32
74573;BME280;63071;51.526;-0.134;2023-03-14T00:40:06;98264.63;;;23.74;33.66
74573;BME280;63071;51.526;-0.134;2023-03-14T00:42:32;98270.25;;;23.76;33.32
74573;BME280;63071;51.526;-0.134;2023-03-14T00:44:58;98275.59;;;23.76;33.17
74573;BME280;63071;51.526;-0.134;2023-03-14T00:47:23;98264.63;;;23.74;33.01
74573;BME280;63071;51.526;-0.134;2023-03-14T00:49:49;98277.94;;;23.74;33.25
74573;BME280;63071;51.526;-0.134;2023-03-14T00:52:14;98286.69;;;23.75;33.23
74573;BME280;63071;51.526;-0.134;2023-03-14T00:54:40;98271.69;;;23.68;33.32
74573;BME280;63071;51.526;-0.134;2023-03-14T00:57:05;98285.84;;;23.78;33.41
74573;BME280;63071;51.526;-0.134;2023-03-14T00:59:31;98286.25;;;23.76;33.46
74573;BME280;63071;51.526;-0.134;2023-03-14T01:01:56;98285.19;;;23.74;33.48
74573;BME280;63071;51.526;-0.134;2023-03-14T01:04:22;98290.22;;;23.72;33.38
74573;BME280;63071;51.526;-0.134;2023-03-14T01:06:48;98324.88;;;23.72;33.41
74573;BME280;63071;51.526;-0.134;2023-03-14T01:09:13;98340.13;;;23.71;33.35
74573;BME280;63071;51.526;-0.134;2023-03-14T01:11:39;98369.78;;;23.73;33.34
74573;BME280;63071;51.526;-0.134;2023-03-14T01:14:05;98397.22;;;23.74;33.48
74573;BME280;63071;51.526;-0.134;2023-03-14T01:16:32;98402.03;;;23.66;33.41
74573;BME280;63071;51.526;-0.134;2023-03-14T01:21:29;98419.41;;;23.58;33.48
74573;BME280;63071;51.526;-0.134;2023-03-14T01:23:57;98433.50;;;23.58;33.58
74573;BME280;63071;51.526;-0.134;2023-03-14T01:26:25;98444.59;;;23.57;33.68
74573;BME280;63071;51.526;-0.134;2023-03-14T01:28:53;98454.53;;;23.56;33.56
74573;BME280;63071;51.526;-0.134;2023-03-14T01:31:19;98454.94;;;23.55;33.53
74573;BME280;63071;51.526;-0.134;2023-03-14T01:33:45;98467.63;;;23.51;33.60
74573;BME280;63071;51.526;-0.134;2023-03-14T01:36:11;98481.69;;;23.51;33.43
74573;BME280;63071;51.526;-0.134;2023-03-14T01:38:38;98498.44;;;23.52;33.45
74573;BME280;63071;51.526;-0.134;2023-03-14T01:41:05;98498.88;;;23.50;33.43
74573;BME280;63071;51.526;-0.134;2023-03-14T01:43:31;98504.09;;;23.54;33.62
74573;BME280;63071;51.526;-0.134;2023-03-14T01:49:24;98537.38;;;23.49;33.66
74573;BME280;63071;51.526;-0.134;2023-03-14T01:52:19;98536.53;;;23.52;33.70
74573;BME280;63071;51.526;-0.134;2023-03-14T01:54:53;98546.44;;;23.52;33.35
74573;BME280;63071;51.526;-0.134;2023-03-14T02:00:22;98570.75;;;23.54;33.46
74573;BME280;63071;51.526;-0.134;2023-03-14T02:03:11;98566.84;;;23.58;33.23
74573;BME280;63071;51.526;-0.134;2023-03-14T02:05:41;98585.50;;;23.58;33.30
74573;BME280;63071;51.526;-0.134;2023-03-14T02:08:11;98594.88;;;23.63;33.11
74573;BME280;63071;51.526;-0.134;2023-03-14T02:10:43;98584.88;;;23.67;33.05
74573;BME280;63071;51.526;-0.134;2023-03-14T02:13:10;98602.06;;;23.66;33.26
74573;BME280;63071;51.526;-0.134;2023-03-14T02:15:38;98610.69;;;23.70;33.11
74573;BME280;63071;51.526;-0.134;2023-03-14T02:18:05;98608.69;;;23.74;32.89
74573;BME280;63071;51.526;-0.134;2023-03-14T02:23:08;98615.91;;;23.74;33.02
74573;BME280;63071;51.526;-0.134;2023-03-14T02:25:53;98627.03;;;23.72;32.81
74573;BME280;63071;51.526;-0.134;2023-03-14T02:28:22;98636.94;;;23.72;33.00
74573;BME280;63071;51.526;-0.134;2023-03-14T02:30:47;98641.63;;;23.68;33.00
74573;BME280;63071;51.526;-0.134;2023-03-14T02:33:16;98654.13;;;23.71;32.80
74573;BME280;63071;51.526;-0.134;2023-03-14T02:35:47;98667.03;;;23.72;32.81
74573;BME280;63071;51.526;-0.134;2023-03-14T02:38:39;98667.44;;;23.71;32.84
74573;BME280;63071;51.526;-0.134;2023-03-14T02:41:08;98689.94;;;23.70;32.94
74573;BME280;63071;51.526;-0.134;2023-03-14T02:43:34;98696.78;;;23.71;33.02
74573;BME280;63071;51.526;-0.134;2023-03-14T02:46:02;98707.47;;;23.71;32.94
74573;BME280;63071;51.526;-0.134;2023-03-14T02:48:43;98717.81;;;23.69;32.86
74573;BME280;63071;51.526;-0.134;2023-03-14T02:51:12;98728.47;;;23.69;32.96
74573;BME280;63071;51.526;-0.134;2023-03-14T02:53:39;98736.06;;;23.70;32.70
74573;BME280;63071;51.526;-0.134;2023-03-14T02:56:07;98737.94;;;23.70;32.59
74573;BME280;63071;51.526;-0.134;2023-03-14T02:58:33;98737.88;;;23.73;32.55
74573;BME280;63071;51.526;-0.134;2023-03-14T03:00:59;98731.06;;;23.72;32.59
74573;BME280;63071;51.526;-0.134;2023-03-14T03:03:24;98747.56;;;23.67;32.49
74573;BME280;63071;51.526;-0.134;2023-03-14T03:05:52;98757.81;;;23.69;32.75
74573;BME280;63071;51.526;-0.134;2023-03-14T03:08:19;98763.13;;;23.69;32.67
74573;BME280;63071;51.526;-0.134;2023-03-14T03:10:45;98766.97;;;23.68;32.72
74573;BME280;63071;51.526;-0.134;2023-03-14T03:13:11;98773.06;;;23.68;32.62
74573;BME280;63071;51.526;-0.134;2023-03-14T03:15:37;98776.16;;;23.67;32.50
74573;BME280;63071;51.526;-0.134;2023-03-14T03:18:02;98787.88;;;23.69;32.60
74573;BME280;63071;51.526;-0.134;2023-03-14T03:20:28;98787.56;;;23.67;32.63
74573;BME280;63071;51.526;-0.134;2023-03-14T03:22:53;98794.41;;;23.68;32.59
74573;BME280;63071;51.526;-0.134;2023-03-14T03:25:19;98803.56;;;23.67;32.50
74573;BME280;63071;51.526;-0.134;2023-03-14T03:27:45;98803.16;;;23.69;32.63
74573;BME280;63071;51.526;-0.134;2023-03-14T03:30:11;98817.63;;;23.68;32.50
74573;BME280;63071;51.526;-0.134;2023-03-14T03:32:36;98826.06;;;23.66;32.56
74573;BME280;63071;51.526;-0.134;2023-03-14T03:35:03;98825.31;;;23.66;32.64
74573;BME280;63071;51.526;-0.134;2023-03-14T03:37:33;98832.56;;;23.65;32.70
74573;BME280;63071;51.526;-0.134;2023-03-14T03:40:00;98845.16;;;23.65;32.48
74573;BME280;63071;51.526;-0.134;2023-03-14T03:42:26;98853.50;;;23.67;32.63
74573;BME280;63071;51.526;-0.134;2023-03-14T03:44:52;98850.09;;;23.66;32.37
74573;BME280;63071;51.526;-0.134;2023-03-14T03:47:18;98852.06;;;23.62;32.70
74573;BME280;63071;51.526;-0.134;2023-03-14T03:49:43;98856.25;;;23.63;32.45
74573;BME280;63071;51.526;-0.134;2023-03-14T03:52:08;98854.31;;;23.64;32.51
74573;BME280;63071;51.526;-0.134;2023-03-14T03:54:35;98855.81;;;23.65;32.56
74573;BME280;63071;51.526;-0.134;2023-03-14T03:57:00;98864.25;;;23.63;32.32
74573;BME280;63071;51.526;-0.134;2023-03-14T04:01:51;98889.41;;;23.62;32.23
74573;BME280;63071;51.526;-0.134;2023-03-14T04:04:16;98902.31;;;23.64;32.17
74573;BME280;63071;51.526;-0.134;2023-03-14T04:06:42;98901.91;;;23.65;32.22
74573;BME280;63071;51.526;-0.134;2023-03-14T04:09:08;98907.66;;;23.64;32.45
74573;BME280;63071;51.526;-0.134;2023-03-14T04:11:34;98913.41;;;23.62;32.36
74573;BME280;63071;51.526;-0.134;2023-03-14T04:14:00;98933.25;;;23.61;32.18
74573;BME280;63071;51.526;-0.134;2023-03-14T04:16:26;98931.72;;;23.60;32.26
74573;BME280;63071;51.526;-0.134;2023-03-14T04:18:51;98936.66;;;23.62;32.18
74573;BME280;63071;51.526;-0.134;2023-03-14T04:21:18;98936.66;;;23.62;32.10
74573;BME280;63071;51.526;-0.134;2023-03-14T04:23:43;98953.41;;;23.62;32.10
74573;BME280;63071;51.526;-0.134;2023-03-14T04:26:09;98957.25;;;23.61;32.03
74573;BME280;63071;51.526;-0.134;2023-03-14T04:28:35;98958.75;;;23.62;31.91
74573;BME280;63071;51.526;-0.134;2023-03-14T04:31:09;98984.25;;;23.63;32.17
74573;BME280;63071;51.526;-0.134;2023-03-14T04:33:35;98987.31;;;23.62;32.13
74573;BME280;63071;51.526;-0.134;2023-03-14T04:36:01;99000.66;;;23.62;32.15
74573;BME280;63071;51.526;-0.134;2023-03-14T04:38:26;98998.91;;;23.55;31.77
74573;BME280;63071;51.526;-0.134;2023-03-14T04:40:52;99012.50;;;23.60;31.87
74573;BME280;63071;51.526;-0.134;2023-03-14T04:43:17;99009.06;;;23.60;31.93
74573;BME280;63071;51.526;-0.134;2023-03-14T04:45:43;99019.00;;;23.59;32.02
74573;BME280;63071;51.526;-0.134;2023-03-14T04:48:09;99022.06;;;23.58;31.95
74573;BME280;63071;51.526;-0.134;2023-03-14T04:50:34;99037.66;;;23.59;32.10
74573;BME280;63071;51.526;-0.134;2023-03-14T04:52:59;99043.34;;;23.62;31.82
74573;BME280;63071;51.526;-0.134;2023-03-14T04:55:25;99049.06;;;23.60;31.94
74573;BME280;63071;51.526;-0.134;2023-03-14T04:57:50;99052.44;;;23.64;31.68
74573;BME280;63071;51.526;-0.134;2023-03-14T05:00:16;99062.69;;;23.66;31.87
74573;BME280;63071;51.526;-0.134;2023-03-14T05:02:45;99062.75;;;23.62;31.84
74573;BME280;63071;51.526;-0.134;2023-03-14T05:05:10;99072.25;;;23.63;31.83
74573;BME280;63071;51.526;-0.134;2023-03-14T05:07:36;99077.25;;;23.61;31.71
74573;BME280;63071;51.526;-0.134;2023-03-14T05:10:02;99067.00;;;23.59;31.82
74573;BME280;63071;51.526;-0.134;2023-03-14T05:12:27;99070.41;;;23.60;31.46
74573;BME280;63071;51.526;-0.134;2023-03-14T05:14:53;99078.75;;;23.62;31.54
74573;BME280;63071;51.526;-0.134;2023-03-14T05:19:44;99085.25;;;23.61;31.29
74573;BME280;63071;51.526;-0.134;2023-03-14T05:22:10;99088.69;;;23.62;31.37
74573;BME280;63071;51.526;-0.134;2023-03-14T05:24:36;99086.00;;;23.62;31.60
74573;BME280;63071;51.526;-0.134;2023-03-14T05:27:02;99081.16;;;23.56;31.47
74573;BME280;63071;51.526;-0.134;2023-03-14T05:29:27;99104.34;;;23.59;31.45
74573;BME280;63071;51.526;-0.134;2023-03-14T05:31:53;99102.41;;;23.60;31.27
74573;BME280;63071;51.526;-0.134;2023-03-14T05:34:18;99114.59;;;23.61;31.37
74573;BME280;63071;51.526;-0.134;2023-03-14T05:36:43;99126.75;;;23.62;31.42
74573;BME280;63071;51.526;-0.134;2023-03-14T05:39:09;99127.94;;;23.61;31.34
74573;BME280;63071;51.526;-0.134;2023-03-14T05:41:34;99138.94;;;23.63;31.22
74573;BME280;63071;51.526;-0.134;2023-03-14T05:44:01;99144.28;;;23.63;31.26
74573;BME280;63071;51.526;-0.134;2023-03-14T05:46:26;99147.34;;;23.62;31.36
74573;BME280;63071;51.526;-0.134;2023-03-14T05:48:52;99148.09;;;23.62;31.28
74573;BME280;63071;51.526;-0.134;2023-03-14T05:51:17;99148.81;;;23.66;31.35
74573;BME280;63071;51.526;-0.134;2023-03-14T05:53:43;99164.03;;;23.66;31.28
74573;BME280;63071;51.526;-0.134;2023-03-14T05:56:08;99167.03;;;23.68;31.36
74573;BME280;63071;51.526;-0.134;2023-03-14T05:58:34;99163.97;;;23.69;31.23
74573;BME280;63071;51.526;-0.134;2023-03-14T06:01:03;99176.56;;;23.69;31.45
74573;BME280;63071;51.526;-0.134;2023-03-14T06:03:29;99182.66;;;23.69;31.37
74573;BME280;63071;51.526;-0.134;2023-03-14T06:05:55;99182.59;;;23.73;31.23
74573;BME280;63071;51.526;-0.134;2023-03-14T06:08:20;99183.41;;;23.70;31.55
74573;BME280;63071;51.526;-0.134;2023-03-14T06:10:46;99195.53;;;23.74;31.04
74573;BME280;63071;51.526;-0.134;2023-03-14T06:13:11;99197.00;;;23.75;31.24
74573;BME280;63071;51.526;-0.134;2023-03-14T06:15:37;99194.72;;;23.77;30.98
74573;BME280;63071;51.526;-0.134;2023-03-14T06:18:02;99208.78;;;23.78;30.93
74573;BME280;63071;51.526;-0.134;2023-03-14T06:20:28;99213.38;;;23.77;30.92
74573;BME280;63071;51.526;-0.134;2023-03-14T06:22:53;99224.41;;;23.79;31.10
74573;BME280;63071;51.526;-0.134;2023-03-14T06:25:19;99219.81;;;23.80;31.08
74573;BME280;63071;51.526;-0.134;2023-03-14T06:27:44;99233.16;;;23.80;30.78
74573;BME280;63071;51.526;-0.134;2023-03-14T06:30:10;99242.69;;;23.81;30.92
74573;BME280;63071;51.526;-0.134;2023-03-14T06:32:36;99254.44;;;23.84;30.63
74573;BME280;63071;51.526;-0.134;2023-03-14T06:35:01;99256.34;;;23.83;30.86
74573;BME280;63071;51.526;-0.134;2023-03-14T06:37:28;99269.28;;;23.85;30.80
74573;BME280;63071;51.526;-0.134;2023-03-14T06:39:54;99269.69;;;23.83;30.82
74573;BME280;63071;51.526;-0.134;2023-03-14T06:42:19;99264.34;;;23.83;30.68
74573;BME280;63071;51.526;-0.134;2023-03-14T06:44:44;99283.03;;;23.83;30.69
74573;BME280;63071;51.526;-0.134;2023-03-14T06:47:10;99288.03;;;23.81;30.75
74573;BME280;63071;51.526;-0.134;2023-03-14T06:49:35;99292.97;;;23.83;30.66
74573;BME280;63071;51.526;-0.134;2023-03-14T06:52:01;99300.97;;;23.83;30.48
74573;BME280;63071;51.526;-0.134;2023-03-14T06:54:26;99308.97;;;23.83;30.72
74573;BME280;63071;51.526;-0.134;2023-03-14T06:56:52;99308.97;;;23.83;30.75
74573;BME280;63071;51.526;-0.134;2023-03-14T06:59:17;99325.31;;;23.85;30.38
74573;BME280;63071;51.526;-0.134;2023-03-14T07:01:42;99324.56;;;23.84;30.84
74573;BME280;63071;51.526;-0.134;2023-03-14T07:04:09;99332.22;;;23.82;30.72
74573;BME280;63071;51.526;-0.134;2023-03-14T07:06:35;99329.19;;;23.80;30.58
74573;BME280;63071;51.526;-0.134;2023-03-14T07:09:00;99342.19;;;23.78;30.56
74573;BME280;63071;51.526;-0.134;2023-03-14T07:11:26;99343.72;;;23.79;30.61
74573;BME280;63071;51.526;-0.134;2023-03-14T07:13:51;99355.13;;;23.79;30.55
74573;BME280;63071;51.526;-0.134;2023-03-14T07:16:17;99379.16;;;23.79;30.24
74573;BME280;63071;51.526;-0.134;2023-03-14T07:18:42;99376.81;;;23.82;30.29
74573;BME280;63071;51.526;-0.134;2023-03-14T07:21:09;99395.16;;;23.79;29.91
74573;BME280;63071;51.526;-0.134;2023-03-14T07:23:35;99396.66;;;23.81;30.27
74573;BME280;63071;51.526;-0.134;2023-03-14T07:26:01;99416.09;;;23.81;30.48
74573;BME280;63071;51.526;-0.134;2023-03-14T07:28:26;99417.25;;;23.80;30.13
74573;BME280;63071;51.526;-0.134;2023-03-14T07:30:54;99425.25;;;23.80;30.34
74573;BME280;63071;51.526;-0.134;2023-03-14T07:33:20;99440.84;;;23.82;30.13
74573;BME280;63071;51.526;-0.134;2023-03-14T07:35:49;99453.44;;;23.81;30.39
74573;BME280;63071;51.526;-0.134;2023-03-14T07:38:15;99448.50;;;23.79;30.23
74573;BME280;63071;51.526;-0.134;2023-03-14T07:40:41;99477.84;;;23.79;30.28
74573;BME280;63071;51.526;-0.134;2023-03-14T07:43:06;99469.59;;;23.70;30.04
74573;BME280;63071;51.526;-0.134;2023-03-14T07:45:32;99485.13;;;23.75;30.30
74573;BME280;63071;51.526;-0.134;2023-03-14T07:47:57;99499.19;;;23.79;30.16
74573;BME280;63071;51.526;-0.134;2023-03-14T07:50:25;99506.84;;;23.77;30.16
74573;BME280;63071;51.526;-0.134;2023-03-14T07:52:51;99520.97;;;23.74;29.95
74573;BME280;63071;51.526;-0.134;2023-03-14T07:55:16;99533.50;;;23.81;29.88
74573;BME280;63071;51.526;-0.134;2023-03-14T07:57:42;99549.16;;;23.79;30.01
74573;BME280;63071;51.526;-0.134;2023-03-14T08:00:08;99548.75;;;23.81;30.07
74573;BME280;63071;51.526;-0.134;2023-03-14T08:02:34;99565.13;;;23.83;29.80
74573;BME280;63071;51.526;-0.134;2023-03-14T08:05:01;99566.25;;;23.82;29.94
74573;BME280;63071;51.526;-0.134;2023-03-14T08:07:29;99584.91;;;23.85;29.62
74573;BME280;63071;51.526;-0.134;2023-03-14T08:09:54;99592.50;;;23.87;29.64
74573;BME280;63071;51.526;-0.134;2023-03-14T08:12:20;99607.34;;;23.88;29.89
74573;BME280;63071;51.526;-0.134;2023-03-14T08:14:45;99622.22;;;23.89;29.85
74573;BME280;63071;51.526;-0.134;2023-03-14T08:17:11;99638.56;;;23.91;29.99
74573;BME280;63071;51.526;-0.134;2023-03-14T08:19:37;99643.13;;;23.90;29.87
74573;BME280;63071;51.526;-0.134;2023-03-14T08:22:02;99648.09;;;23.92;29.61
74573;BME280;63071;51.526;-0.134;2023-03-14T08:24:28;99659.13;;;23.94;29.57
74573;BME280;63071;51.526;-0.134;2023-03-14T08:26:53;99664.06;;;23.95;29.93
74573;BME280;63071;51.526;-0.134;2023-03-14T08:29:19;99669.78;;;23.94;29.63
74573;BME280;63071;51.526;-0.134;2023-03-14T08:31:44;99682.00;;;23.95;29.88
74573;BME280;63071;51.526;-0.134;2023-03-14T08:34:10;99690.75;;;23.95;29.71
74573;BME280;63071;51.526;-0.134;2023-03-14T08:36:35;99699.50;;;23.96;29.66
74573;BME280;63071;51.526;-0.134;2023-03-14T08:39:01;99711.34;;;23.95;29.96
74573;BME280;63071;51.526;-0.134;2023-03-14T08:41:26;99723.16;;;23.94;29.75
74573;BME280;63071;51.526;-0.134;2023-03-14T08:43:52;99731.13;;;23.97;29.81
74573;BME280;63071;51.526;-0.134;2023-03-14T08:46:17;99742.94;;;23.96;29.98
74573;BME280;63071;51.526;-0.134;2023-03-14T08:48:43;99749.84;;;23.94;29.51
74573;BME280;63071;51.526;-0.134;2023-03-14T08:51:10;99758.97;;;23.96;29.81
74573;BME280;63071;51.526;-0.134;2023-03-14T08:53:37;99770.06;;;23.95;29.72
74573;BME280;63071;51.526;-0.134;2023-03-14T08:56:03;99780.75;;;23.95;29.63
74573;BME280;63071;51.526;-0.134;2023-03-14T08:58:31;99779.56;;;23.96;29.89
74573;BME280;63071;51.526;-0.134;2023-03-14T09:00:57;99796.31;;;24.00;29.72
74573;BME280;63071;51.526;-0.134;2023-03-14T09:03:23;99801.66;;;23.96;29.67
74573;BME280;63071;51.526;-0.134;2023-03-14T09:05:50;99819.97;;;23.98;29.49
74573;BME280;63071;51.526;-0.134;2023-03-14T09:08:16;99813.50;;;23.95;29.28
74573;BME280;63071;51.526;-0.134;2023-03-14T09:10:41;99831.38;;;23.98;29.31
74573;BME280;63071;51.526;-0.134;2023-03-14T09:13:07;99852.00;;;23.98;29.75
74573;BME280;63071;51.526;-0.134;2023-03-14T09:15:33;99860.00;;;23.98;29.48
74573;BME280;63071;51.526;-0.134;2023-03-14T09:17:58;99870.31;;;23.96;29.47
74573;BME280;63071;51.526;-0.134;2023-03-14T09:20:24;99884.03;;;23.98;29.51
74573;BME280;63071;51.526;-0.134;2023-03-14T09:22:49;99887.06;;;23.96;29.32
74573;BME280;63071;51.526;-0.134;2023-03-14T09:25:15;99909.59;;;23.95;29.36
74573;BME280;63071;51.526;-0.134;2023-03-14T09:27:40;99916.84;;;23.95;29.11
74573;BME280;63071;51.526;-0.134;2023-03-14T09:30:06;99921.84;;;23.89;29.56
74573;BME280;63071;51.526;-0.134;2023-03-14T09:32:32;99929.47;;;23.91;29.53
74573;BME280;63071;51.526;-0.134;2023-03-14T09:34:58;99930.94;;;23.95;29.07
74573;BME280;63071;51.526;-0.134;2023-03-14T09:37:23;99935.47;;;23.98;29.07
74573;BME280;63071;51.526;-0.134;2023-03-14T09:39:49;99949.19;;;24.00;29.55
74573;BME280;63071;51.526;-0.134;2023-03-14T09:42:17;99965.56;;;24.03;29.16
74573;BME280;63071;51.526;-0.134;2023-03-14T09:45:00;99969.03;;;24.03;29.30
74573;BME280;63071;51.526;-0.134;2023-03-14T09:47:30;99969.41;;;24.02;29.02
74573;BME280;63071;51.526;-0.134;2023-03-14T09:49:55;99981.94;;;24.05;29.15
74573;BME280;63071;51.526;-0.134;2023-03-14T09:52:31;99991.50;;;24.06;29.33
74573;BME280;63071;51.526;-0.134;2023-03-14T09:55:04;99995.72;;;24.03;29.28
74573;BME280;63071;51.526;-0.134;2023-03-14T09:57:33;100007.91;;;24.00;28.94
74573;BME280;63071;51.526;-0.134;2023-03-14T10:00:21;100006.81;;;23.98;29.00
74573;BME280;63071;51.526;-0.134;2023-03-14T10:02:58;100019.03;;;23.92;29.00
74573;BME280;63071;51.526;-0.134;2023-03-14T10:05:26;100024.81;;;23.87;28.84
74573;BME280;63071;51.526;-0.134;2023-03-14T10:07:56;100040.09;;;23.79;29.10
74573;BME280;63071;51.526;-0.134;2023-03-14T10:10:25;100039.31;;;23.82;28.79
74573;BME280;63071;51.526;-0.134;2023-03-14T10:15:35;100054.19;;;23.76;29.10
74573;BME280;63071;51.526;-0.134;2023-03-14T10:18:03;100052.28;;;23.80;28.97
74573;BME280;63071;51.526;-0.134;2023-03-14T10:20:42;100053.44;;;23.83;28.85
74573;BME280;63071;51.526;-0.134;2023-03-14T10:25:40;100060.31;;;23.76;28.86
74573;BME280;63071;51.526;-0.134;2023-03-14T10:28:28;100080.13;;;23.83;28.85
74573;BME280;63071;51.526;-0.134;2023-03-14T10:30:55;100085.84;;;23.81;28.56
74573;BME280;63071;51.526;-0.134;2023-03-14T10:33:25;100091.91;;;23.85;28.65
74573;BME280;63071;51.526;-0.134;2023-03-14T10:35:57;100100.69;;;23.86;28.66
74573;BME280;63071;51.526;-0.134;2023-03-14T10:38:27;100091.53;;;23.76;28.53
74573;BME280;63071;51.526;-0.134;2023-03-14T10:40:54;100089.66;;;23.76;28.62
74573;BME280;63071;51.526;-0.134;2023-03-14T10:43:27;100110.97;;;23.87;28.56
74573;BME280;63071;51.526;-0.134;2023-03-14T10:45:58;100119.34;;;23.86;28.82
74573;BME280;63071;51.526;-0.134;2023-03-14T10:51:28;100133.00;;;24.02;28.53
74573;BME280;63071;51.526;-0.134;2023-03-14T10:54:13;100143.28;;;24.07;28.54
74573;BME280;63071;51.526;-0.134;2023-03-14T10:56:39;100144.00;;;24.11;28.51
74573;BME280;63071;51.526;-0.134;2023-03-14T10:59:13;100163.47;;;24.08;29.15
74573;BME280;63071;51.526;-0.134;2023-03-14T11:02:00;100166.91;;;24.09;28.61
74573;BME280;63071;51.526;-0.134;2023-03-14T11:10:08;100188.59;;;24.22;28.82
74573;BME280;63071;51.526;-0.134;2023-03-14T11:15:20;100197.34;;;24.18;28.15
74573;BME280;63071;51.526;-0.134;2023-03-14T11:23:25;100233.13;;;24.39;28.28
74573;BME280;63071;51.526;-0.134;2023-03-14T11:26:01;100236.56;;;24.36;28.21
74573;BME280;63071;51.526;-0.134;2023-03-14T11:28:39;100225.91;;;24.32;28.38
74573;BME280;63071;51.526;-0.134;2023-03-14T11:33:48;100237.41;;;24.18;28.70
74573;BME280;63071;51.526;-0.134;2023-03-14T11:36:21;100246.16;;;24.23;28.41
74573;BME280;63071;51.526;-0.134;2023-03-14T11:38:50;100240.88;;;24.15;28.52
74573;BME280;63071;51.526;-0.134;2023-03-14T11:41:23;100246.22;;;24.19;28.65
74573;BME280;63071;51.526;-0.134;2023-03-14T11:43:56;100241.91;;;24.36;28.39
74573;BME280;63071;51.526;-0.134;2023-03-14T11:46:26;100242.63;;;24.51;28.19
74573;BME280;63071;51.526;-0.134;2023-03-14T11:51:31;100263.59;;;24.59;28.20
74573;BME280;63071;51.526;-0.134;2023-03-14T11:57:12;100273.94;;;24.50;28.40
74573;BME280;63071;51.526;-0.134;2023-03-14T12:10:48;100291.06;;;24.60;28.23
74573;BME280;63071;51.526;-0.134;2023-03-14T12:13:16;100301.75;;;24.49;28.05
74573;BME280;63071;51.526;-0.134;2023-03-14T12:15:54;100293.78;;;24.38;27.98
74573;BME280;63071;51.526;-0.134;2023-03-14T12:18:32;100304.09;;;24.36;28.22
74573;BME280;63071;51.526;-0.134;2023-03-14T12:21:01;100298.81;;;24.18;27.64
74573;BME280;63071;51.526;-0.134;2023-03-14T12:23:37;100308.69;;;24.32;28.19
74573;BME280;63071;51.526;-0.134;2023-03-14T12:26:12;100312.88;;;24.40;27.73
74573;BME280;63071;51.526;-0.134;2023-03-14T12:28:43;100314.88;;;24.15;27.98
74573;BME280;63071;51.526;-0.134;2023-03-14T12:34:03;100319.81;;;24.24;28.02
74573;BME280;63071;51.526;-0.134;2023-03-14T12:39:37;100323.97;;;24.28;27.58
74573;BME280;63071;51.526;-0.134;2023-03-14T12:45:34;100328.53;;;24.38;27.30
74573;BME280;63071;51.526;-0.134;2023-03-14T12:50:53;100341.88;;;24.38;26.69
74573;BME280;63071;51.526;-0.134;2023-03-14T12:53:41;100334.97;;;24.48;26.88
74573;BME280;63071;51.526;-0.134;2023-03-14T12:56:26;100341.09;;;24.56;27.33
74573;BME280;63071;51.526;-0.134;2023-03-14T13:01:53;100337.59;;;24.70;26.49
74573;BME280;63071;51.526;-0.134;2023-03-14T13:04:26;100340.19;;;24.77;27.19
74573;BME280;63071;51.526;-0.134;2023-03-14T13:06:55;100343.63;;;24.77;26.97
74573;BME280;63071;51.526;-0.134;2023-03-14T13:11:52;100347.09;;;24.78;27.15
74573;BME280;63071;51.526;-0.134;2023-03-14T13:14:18;100349.34;;;24.79;26.97
74573;BME280;63071;51.526;-0.134;2023-03-14T13:16:44;100354.31;;;24.81;27.37
74573;BME280;63071;51.526;-0.134;2023-03-14T13:19:18;100362.69;;;24.83;26.99
74573;BME280;63071;51.526;-0.134;2023-03-14T13:21:46;100350.88;;;24.84;27.33
74573;BME280;63071;51.526;-0.134;2023-03-14T13:24:23;100353.50;;;24.88;27.20
74573;BME280;63071;51.526;-0.134;2023-03-14T13:26:52;100362.25;;;24.92;26.97
74573;BME280;63071;51.526;-0.134;2023-03-14T13:29:32;100366.44;;;24.96;27.68
74573;BME280;63071;51.526;-0.134;2023-03-14T13:32:00;100365.66;;;24.99;26.98
74573;BME280;63071;51.526;-0.134;2023-03-14T13:34:31;100366.09;;;24.94;27.02
74573;BME280;63071;51.526;-0.134;2023-03-14T13:36:58;100362.63;;;24.97;27.17
74573;BME280;63071;51.526;-0.134;2023-03-14T13:39:26;100377.50;;;25.02;26.49
74573;BME280;63071;51.526;-0.134;2023-03-14T13:41:58;100369.06;;;25.04;27.04
74573;BME280;63071;51.526;-0.134;2023-03-14T13:44:44;100386.63;;;25.08;26.49
74573;BME280;63071;51.526;-0.134;2023-03-14T13:47:21;100385.84;;;25.08;26.38
74573;BME280;63071;51.526;-0.134;2023-03-14T13:49:49;100387.03;;;24.99;27.23
74573;BME280;63071;51.526;-0.134;2023-03-14T13:52:30;100397.38;;;24.97;26.76
74573;BME280;63071;51.526;-0.134;2023-03-14T13:54:59;100384.78;;;24.94;27.07
74573;BME280;63071;51.526;-0.134;2023-03-14T13:57:25;100392.03;;;24.97;27.44
74573;BME280;63071;51.526;-0.134;2023-03-14T14:00:03;100393.13;;;25.07;27.24
74573;BME280;63071;51.526;-0.134;2023-03-14T14:02:39;100408.41;;;25.07;27.04
74573;BME280;63071;51.526;-0.134;2023-03-14T14:05:05;100408.06;;;25.01;27.31
74573;BME280;63071;51.526;-0.134;2023-03-14T14:07:31;100408.44;;;25.03;26.41